createdAt,value
2018-05-24T00:00:29.592Z,42.97
2018-05-24T00:02:57.004Z,43.13
2018-05-24T00:05:24.425Z,43.16
2018-05-24T00:07:51.927Z,43.71
2018-05-24T00:10:19.248Z,43.79
2018-05-24T00:12:46.656Z,43.70
2018-05-24T00:15:14.080Z,43.87
2018-05-24T00:17:41.488Z,43.65
2018-05-24T00:20:08.912Z,44.29
2018-05-24T00:22:36.320Z,43.92
2018-05-24T00:25:03.761Z,43.99
2018-05-24T00:27:31.167Z,44.44
2018-05-24T00:29:58.589Z,44.12
2018-05-24T00:32:25.996Z,44.27
2018-05-24T00:34:53.434Z,44.33
2018-05-24T00:37:20.844Z,44.65
2018-05-24T00:39:48.255Z,44.97
2018-05-24T00:42:15.664Z,45.05
2018-05-24T00:44:43.093Z,45.39
2018-05-24T00:47:10.505Z,45.62
2018-05-24T00:49:37.921Z,46.03
2018-05-24T00:52:05.332Z,46.27
2018-05-24T00:54:32.750Z,46.46
2018-05-24T00:57:00.165Z,46.26
2018-05-24T00:59:27.607Z,47.16
2018-05-24T01:01:55.033Z,46.63
2018-05-24T01:04:22.449Z,46.74
2018-05-24T01:06:49.864Z,47.21
2018-05-24T01:09:17.287Z,47.13
2018-05-24T01:11:44.699Z,47.65
2018-05-24T01:14:12.125Z,47.91
2018-05-24T01:16:39.538Z,47.82
2018-05-24T01:19:06.958Z,47.73
2018-05-24T01:21:34.384Z,47.78
2018-05-24T01:24:01.805Z,47.90
2018-05-24T01:26:29.210Z,47.91
2018-05-24T01:28:56.620Z,48.36
2018-05-24T01:31:24.039Z,48.06
2018-05-24T01:33:51.453Z,48.43
2018-05-24T01:36:18.868Z,48.87
2018-05-24T01:38:46.271Z,48.49
2018-05-24T01:41:13.692Z,48.18
2018-05-24T01:43:41.145Z,48.05
2018-05-24T01:46:08.566Z,47.95
2018-05-24T01:48:35.987Z,48.43
2018-05-24T01:51:03.404Z,48.24
2018-05-24T01:53:30.817Z,47.96
2018-05-24T01:55:58.230Z,48.47
2018-05-24T01:58:25.641Z,48.25
2018-05-24T02:00:53.061Z,48.28
2018-05-24T02:03:20.469Z,48.36
2018-05-24T02:05:47.886Z,48.28
2018-05-24T02:08:15.298Z,49.03
2018-05-24T02:10:42.712Z,48.15
2018-05-24T02:13:10.122Z,48.42
2018-05-24T02:15:37.539Z,48.35
2018-05-24T02:18:04.950Z,48.34
2018-05-24T02:20:32.366Z,48.52
2018-05-24T02:22:59.780Z,48.62
2018-05-24T02:25:27.197Z,48.82
2018-05-24T02:27:54.613Z,48.57
2018-05-24T02:30:22.039Z,49.06
2018-05-24T02:32:49.455Z,48.98
2018-05-24T02:35:16.873Z,49.20
2018-05-24T02:37:44.280Z,49.21
2018-05-24T02:40:11.710Z,49.74
2018-05-24T02:42:39.130Z,49.31
2018-05-24T02:45:06.536Z,49.39
2018-05-24T02:47:33.945Z,49.35
2018-05-24T02:50:01.354Z,49.68
2018-05-24T02:52:28.785Z,49.26
2018-05-24T02:54:56.197Z,49.50
2018-05-24T02:57:23.601Z,49.38
2018-05-24T02:59:51.023Z,49.52
2018-05-24T03:02:18.428Z,49.51
2018-05-24T03:04:45.852Z,49.68
2018-05-24T03:07:13.257Z,49.84
2018-05-24T03:09:40.677Z,49.69
2018-05-24T03:12:08.089Z,49.54
2018-05-24T03:14:35.509Z,50.06
2018-05-24T03:17:02.929Z,49.64
2018-05-24T03:19:30.328Z,50.03
2018-05-24T03:21:57.756Z,49.80
2018-05-24T03:24:25.177Z,50.43
2018-05-24T03:26:52.595Z,50.12
2018-05-24T03:29:20.012Z,49.92
2018-05-24T03:31:47.421Z,49.91
2018-05-24T03:34:14.829Z,50.04
2018-05-24T03:36:42.297Z,50.13
2018-05-24T03:39:09.781Z,50.46
2018-05-24T03:41:37.205Z,50.50
2018-05-24T03:44:04.616Z,50.75
2018-05-24T03:46:32.040Z,51.02
2018-05-24T03:48:59.441Z,51.08
2018-05-24T03:51:26.857Z,51.10
2018-05-24T03:53:54.267Z,51.02
2018-05-24T03:56:21.724Z,51.06
2018-05-24T03:58:49.138Z,50.99
2018-05-24T04:01:28.451Z,51.11
2018-05-24T04:03:55.856Z,51.04
2018-05-24T04:06:24.196Z,51.29
2018-05-24T04:08:51.604Z,51.29
2018-05-24T04:11:19.025Z,51.34
2018-05-24T04:13:46.457Z,51.30
2018-05-24T04:16:13.872Z,51.33
2018-05-24T04:18:41.278Z,51.49
2018-05-24T04:21:08.699Z,51.35
2018-05-24T04:23:36.173Z,51.37
2018-05-24T04:26:03.587Z,51.39
2018-05-24T04:28:31.089Z,51.54
2018-05-24T04:30:58.530Z,51.53
2018-05-24T04:33:25.936Z,51.46
2018-05-24T04:35:53.348Z,52.14
2018-05-24T04:38:20.767Z,51.97
2018-05-24T04:40:48.174Z,51.19
2018-05-24T04:43:15.604Z,51.20
2018-05-24T04:45:43.002Z,51.23
2018-05-24T04:48:10.428Z,51.25
2018-05-24T04:50:37.872Z,51.25
2018-05-24T04:53:05.300Z,51.39
2018-05-24T04:55:32.794Z,51.41
2018-05-24T04:58:00.145Z,51.21
2018-05-24T05:00:27.593Z,51.29
2018-05-24T05:02:55.013Z,51.30
2018-05-24T05:05:22.420Z,51.23
2018-05-24T05:07:49.840Z,51.06
2018-05-24T05:10:17.315Z,50.96
2018-05-24T05:12:44.736Z,50.77
2018-05-24T05:15:12.148Z,50.63
2018-05-24T05:17:39.559Z,50.55
2018-05-24T05:20:06.964Z,50.30
2018-05-24T05:22:34.381Z,50.35
2018-05-24T05:25:01.801Z,50.21
2018-05-24T05:27:29.208Z,50.30
2018-05-24T05:29:56.616Z,50.14
2018-05-24T05:32:24.028Z,50.00
2018-05-24T05:34:51.455Z,50.04
2018-05-24T05:37:18.868Z,49.79
2018-05-24T05:39:46.285Z,49.80
2018-05-24T05:42:13.741Z,49.42
2018-05-24T05:44:41.218Z,49.51
2018-05-24T05:47:08.567Z,49.14
2018-05-24T05:49:35.984Z,49.24
2018-05-24T05:52:03.414Z,49.11
2018-05-24T05:54:30.908Z,49.21
2018-05-24T05:56:58.320Z,48.88
2018-05-24T05:59:25.741Z,48.70
2018-05-24T06:01:53.259Z,48.63
2018-05-24T06:04:20.587Z,48.64
2018-05-24T06:06:47.993Z,48.31
2018-05-24T06:09:15.421Z,48.53
2018-05-24T06:11:42.825Z,48.22
2018-05-24T06:14:10.255Z,48.14
2018-05-24T06:16:37.660Z,48.01
2018-05-24T06:19:05.077Z,47.81
2018-05-24T06:21:32.512Z,47.33
2018-05-24T06:23:59.905Z,47.24
2018-05-24T06:26:27.316Z,46.81
2018-05-24T06:28:54.777Z,46.87
2018-05-24T06:31:22.193Z,46.88
2018-05-24T06:33:49.688Z,46.71
2018-05-24T06:36:17.101Z,46.14
2018-05-24T06:38:44.511Z,45.13
2018-05-24T06:41:11.941Z,45.59
2018-05-24T06:43:39.352Z,45.42
2018-05-24T06:46:06.760Z,44.94
2018-05-24T06:48:34.185Z,45.18
2018-05-24T06:51:01.595Z,44.38
2018-05-24T06:53:29.017Z,44.19
2018-05-24T06:55:56.420Z,42.85
2018-05-24T06:58:23.841Z,43.15
2018-05-24T07:00:51.248Z,43.09
2018-05-24T07:03:18.660Z,43.01
2018-05-24T07:05:46.132Z,42.87
2018-05-24T07:08:13.496Z,42.67
2018-05-24T07:10:40.910Z,42.31
2018-05-24T07:13:08.329Z,42.14
2018-05-24T07:15:35.738Z,41.92
2018-05-24T07:18:03.169Z,41.71
2018-05-24T07:20:30.581Z,41.59
2018-05-24T07:22:58.012Z,41.22
2018-05-24T07:25:25.429Z,40.66
2018-05-24T07:27:52.852Z,40.47
2018-05-24T07:30:20.278Z,39.37
2018-05-24T07:32:47.704Z,39.19
2018-05-24T07:35:15.126Z,38.95
2018-05-24T07:37:42.566Z,38.70
2018-05-24T07:40:09.956Z,38.09
2018-05-24T07:42:37.385Z,37.96
2018-05-24T07:45:04.814Z,36.70
2018-05-24T07:47:32.213Z,36.67
2018-05-24T07:49:59.638Z,36.94
2018-05-24T07:52:27.053Z,36.66
2018-05-24T07:54:54.577Z,36.34
2018-05-24T07:57:21.895Z,35.28
2018-05-24T07:59:49.341Z,35.78
2018-05-24T08:02:16.757Z,34.57
2018-05-24T08:04:44.192Z,35.44
2018-05-24T08:07:11.602Z,34.41
2018-05-24T08:09:39.026Z,34.26
2018-05-24T08:12:06.441Z,34.62
2018-05-24T08:14:33.876Z,33.70
2018-05-24T08:17:01.310Z,33.78
2018-05-24T08:19:28.743Z,32.42
2018-05-24T08:21:56.156Z,33.12
2018-05-24T08:24:23.591Z,32.98
2018-05-24T08:26:51.003Z,32.87
2018-05-24T08:29:18.440Z,32.31
2018-05-24T08:31:45.853Z,32.11
2018-05-24T08:34:13.280Z,31.81
2018-05-24T08:36:40.705Z,31.03
2018-05-24T08:39:08.136Z,31.02
2018-05-24T08:41:35.552Z,30.83
2018-05-24T08:44:02.980Z,30.30
2018-05-24T08:46:30.429Z,30.13
2018-05-24T08:48:57.855Z,29.78
2018-05-24T08:51:25.345Z,29.84
2018-05-24T08:53:52.767Z,28.76
2018-05-24T08:56:20.186Z,29.18
2018-05-24T08:58:47.716Z,28.83
2018-05-24T09:01:15.215Z,28.62
2018-05-24T09:03:42.568Z,28.21
2018-05-24T09:06:10.074Z,28.20
2018-05-24T09:08:37.500Z,28.36
2018-05-24T09:11:04.988Z,28.05
2018-05-24T09:13:32.420Z,27.69
2018-05-24T09:15:59.836Z,27.39
2018-05-24T09:18:27.355Z,26.61
2018-05-24T09:20:54.781Z,27.01
2018-05-24T09:23:22.192Z,27.04
2018-05-24T09:25:49.625Z,26.66
2018-05-24T09:28:17.052Z,26.58
2018-05-24T09:30:44.469Z,25.10
2018-05-24T09:33:11.884Z,25.55
2018-05-24T09:35:39.308Z,25.17
2018-05-24T09:38:06.730Z,24.98
2018-05-24T09:40:34.249Z,24.79
2018-05-24T09:43:01.704Z,24.61
2018-05-24T09:45:29.168Z,24.06
2018-05-24T09:47:56.615Z,24.19
2018-05-24T09:50:24.076Z,23.88
2018-05-24T09:52:51.491Z,23.67
2018-05-24T09:55:19.013Z,24.09
2018-05-24T09:57:46.448Z,24.03
2018-05-24T10:00:13.875Z,23.94
2018-05-24T10:02:41.357Z,23.96
2018-05-24T10:05:08.784Z,24.04
2018-05-24T10:07:36.266Z,24.12
2018-05-24T10:10:03.701Z,24.02
2018-05-24T10:12:31.111Z,24.05
2018-05-24T10:14:58.635Z,24.12
2018-05-24T10:17:26.061Z,24.14
2018-05-24T10:19:53.496Z,24.23
2018-05-24T10:22:20.921Z,24.32
2018-05-24T10:24:48.347Z,24.29
2018-05-24T10:27:15.818Z,24.34
2018-05-24T10:29:43.239Z,24.31
2018-05-24T10:32:10.653Z,24.09
2018-05-24T10:34:38.082Z,24.11
2018-05-24T10:37:05.500Z,24.13
2018-05-24T10:39:33.000Z,24.19
2018-05-24T10:42:00.404Z,24.10
2018-05-24T10:44:27.897Z,24.12
2018-05-24T10:46:55.316Z,24.22
2018-05-24T10:49:22.821Z,24.40
2018-05-24T10:51:50.236Z,24.45
2018-05-24T10:54:17.774Z,24.38
2018-05-24T10:56:45.104Z,24.45
2018-05-24T10:59:12.530Z,24.39
2018-05-24T11:01:39.951Z,24.25
2018-05-24T11:04:07.436Z,24.38
2018-05-24T11:06:34.857Z,24.15
2018-05-24T11:09:02.272Z,24.23
2018-05-24T11:11:29.693Z,24.26
2018-05-24T11:13:57.120Z,24.23
2018-05-24T11:16:24.543Z,24.15
2018-05-24T11:18:51.963Z,24.08
2018-05-24T11:21:19.391Z,23.99
2018-05-24T11:23:46.876Z,23.96
2018-05-24T11:26:14.360Z,24.11
2018-05-24T11:28:41.783Z,24.08
2018-05-24T11:31:09.199Z,23.84
2018-05-24T11:33:36.617Z,23.91
2018-05-24T11:36:04.045Z,23.72
2018-05-24T11:38:31.460Z,23.94
2018-05-24T11:40:58.884Z,23.81
2018-05-24T11:43:26.489Z,23.64
2018-05-24T11:45:53.737Z,23.41
2018-05-24T11:48:21.156Z,22.35
2018-05-24T11:50:48.583Z,22.36
2018-05-24T11:53:16.008Z,22.58
2018-05-24T11:55:43.436Z,22.62
2018-05-24T11:58:10.854Z,22.66
2018-05-24T12:00:38.291Z,22.44
2018-05-24T12:03:05.713Z,22.43
2018-05-24T12:05:33.138Z,22.48
2018-05-24T12:08:00.553Z,22.60
2018-05-24T12:10:27.976Z,22.44
2018-05-24T12:12:55.393Z,22.22
2018-05-24T12:15:22.824Z,22.10
2018-05-24T12:17:50.244Z,22.03
2018-05-24T12:20:17.672Z,21.81
2018-05-24T12:22:45.089Z,22.00
2018-05-24T12:25:12.512Z,21.92
2018-05-24T12:27:39.936Z,21.66
2018-05-24T12:30:07.364Z,21.70
2018-05-24T12:32:34.779Z,21.92
2018-05-24T12:35:02.201Z,22.18
2018-05-24T12:37:29.625Z,22.29
2018-05-24T12:39:57.049Z,22.44
2018-05-24T12:42:24.476Z,22.53
2018-05-24T12:44:51.897Z,22.41
2018-05-24T12:47:19.321Z,22.03
2018-05-24T12:49:46.801Z,21.88
2018-05-24T12:52:14.232Z,21.72
2018-05-24T12:54:41.648Z,21.96
2018-05-24T12:57:09.068Z,22.25
2018-05-24T12:59:36.496Z,22.39
2018-05-24T13:02:03.921Z,22.51
2018-05-24T13:04:31.360Z,22.74
2018-05-24T13:06:58.777Z,22.79
2018-05-24T13:09:26.197Z,22.89
2018-05-24T13:11:53.625Z,22.81
2018-05-24T13:14:21.041Z,22.60
2018-05-24T13:16:48.464Z,22.68
2018-05-24T13:19:15.885Z,22.95
2018-05-24T13:21:43.308Z,23.04
2018-05-24T13:24:10.721Z,23.20
2018-05-24T13:26:38.149Z,23.35
2018-05-24T13:29:05.572Z,23.47
2018-05-24T13:31:32.996Z,23.68
2018-05-24T13:34:00.409Z,23.49
2018-05-24T13:36:27.830Z,23.58
2018-05-24T13:38:55.252Z,23.56
2018-05-24T13:41:22.664Z,23.55
2018-05-24T13:43:50.080Z,23.84
2018-05-24T13:46:17.508Z,24.12
2018-05-24T13:48:44.920Z,24.24
2018-05-24T13:51:12.357Z,24.30
2018-05-24T13:53:39.776Z,24.45
2018-05-24T13:56:07.200Z,24.52
2018-05-24T13:58:34.608Z,24.54
2018-05-24T14:01:02.035Z,24.03
2018-05-24T14:03:29.448Z,24.26
2018-05-24T14:05:56.860Z,24.31
2018-05-24T14:08:24.329Z,24.52
2018-05-24T14:10:51.703Z,24.68
2018-05-24T14:13:19.128Z,24.67
2018-05-24T14:15:46.541Z,24.63
2018-05-24T14:18:13.968Z,24.57
2018-05-24T14:20:41.395Z,24.68
2018-05-24T14:23:08.883Z,24.74
2018-05-24T14:25:36.299Z,24.35
2018-05-24T14:28:03.724Z,24.60
2018-05-24T14:30:31.148Z,24.74
2018-05-24T14:32:58.571Z,24.70
2018-05-24T14:35:25.984Z,24.63
2018-05-24T14:37:53.410Z,24.56
2018-05-24T14:40:20.859Z,24.48
2018-05-24T14:42:48.276Z,24.52
2018-05-24T14:45:15.773Z,24.34
2018-05-24T14:47:43.196Z,24.42
2018-05-24T14:50:10.685Z,24.30
2018-05-24T14:52:38.148Z,23.96
2018-05-24T14:55:05.595Z,24.19
2018-05-24T14:57:33.086Z,24.08
2018-05-24T15:00:00.508Z,24.29
2018-05-24T15:02:27.929Z,24.26
2018-05-24T15:04:55.415Z,24.34
2018-05-24T15:07:22.873Z,24.35
2018-05-24T15:09:50.327Z,24.04
2018-05-24T15:12:17.760Z,23.63
2018-05-24T15:14:45.240Z,23.73
2018-05-24T15:17:12.666Z,23.95
2018-05-24T15:19:40.169Z,23.96
2018-05-24T15:22:07.623Z,23.97
2018-05-24T15:24:35.037Z,23.85
2018-05-24T15:27:02.582Z,23.81
2018-05-24T15:29:30.013Z,24.05
2018-05-24T15:31:57.445Z,24.26
2018-05-24T15:34:24.889Z,24.35
2018-05-24T15:36:52.308Z,24.38
2018-05-24T15:39:19.728Z,24.40
2018-05-24T15:41:47.269Z,24.44
2018-05-24T15:44:14.703Z,24.63
2018-05-24T15:46:42.161Z,24.73
2018-05-24T15:49:09.600Z,24.76
2018-05-24T15:51:37.073Z,24.74
2018-05-24T15:54:04.500Z,24.87
2018-05-24T15:56:31.930Z,24.98
2018-05-24T15:58:59.343Z,25.36
2018-05-24T16:01:26.764Z,26.01
2018-05-24T16:03:54.256Z,27.10
2018-05-24T16:06:21.680Z,26.90
2018-05-24T16:08:49.112Z,27.08
2018-05-24T16:11:16.532Z,27.55
2018-05-24T16:13:43.951Z,27.85
2018-05-24T16:16:11.432Z,28.33
2018-05-24T16:18:38.864Z,28.53
2018-05-24T16:21:06.272Z,28.77
2018-05-24T16:23:33.704Z,29.08
2018-05-24T16:26:01.153Z,29.29
2018-05-24T16:28:28.577Z,29.17
2018-05-24T16:30:55.993Z,29.49
2018-05-24T16:33:28.336Z,29.53
2018-05-24T16:35:55.760Z,29.71
2018-05-24T16:38:23.202Z,29.87
2018-05-24T16:40:50.614Z,29.92
2018-05-24T16:43:18.078Z,29.92
2018-05-24T16:45:46.588Z,30.02
2018-05-24T16:48:14.045Z,30.25
2018-05-24T16:50:41.457Z,30.38
2018-05-24T16:53:11.652Z,30.57
2018-05-24T16:55:39.210Z,30.58
2018-05-24T16:58:06.977Z,30.74
2018-05-24T17:00:34.484Z,30.67
2018-05-24T17:03:01.895Z,30.69
2018-05-24T17:05:29.561Z,30.94
2018-05-24T17:07:57.124Z,31.68
2018-05-24T17:10:24.573Z,31.88
2018-05-24T17:12:51.976Z,31.99
2018-05-24T17:15:19.408Z,32.17
2018-05-24T17:17:46.843Z,32.24
2018-05-24T17:20:14.266Z,32.52
2018-05-24T17:22:41.677Z,32.46
2018-05-24T17:25:09.096Z,32.65
2018-05-24T17:27:36.512Z,32.84
2018-05-24T17:30:03.932Z,32.91
2018-05-24T17:32:31.433Z,32.90
2018-05-24T17:34:58.848Z,32.95
2018-05-24T17:37:26.272Z,33.17
2018-05-24T17:39:53.693Z,33.39
2018-05-24T17:42:21.108Z,33.39
2018-05-24T17:44:48.642Z,33.36
2018-05-24T17:47:16.061Z,33.43
2018-05-24T17:49:43.480Z,33.43
2018-05-24T17:52:10.908Z,33.49
2018-05-24T17:54:38.345Z,33.68
2018-05-24T17:57:05.752Z,33.78
2018-05-24T17:59:33.254Z,33.94
2018-05-24T18:02:00.678Z,34.00
2018-05-24T18:04:28.180Z,34.02
2018-05-24T18:06:55.606Z,34.18
2018-05-24T18:09:23.032Z,34.22
2018-05-24T18:11:50.450Z,34.51
2018-05-24T18:14:17.876Z,34.85
2018-05-24T18:16:45.288Z,34.88
2018-05-24T18:19:12.713Z,35.06
2018-05-24T18:21:40.133Z,35.23
2018-05-24T18:24:07.564Z,35.30
2018-05-24T18:26:35.069Z,35.79
2018-05-24T18:29:02.501Z,35.84
2018-05-24T18:31:29.928Z,36.46
2018-05-24T18:33:57.645Z,36.29
2018-05-24T18:36:25.209Z,36.42
2018-05-24T18:38:52.640Z,37.09
2018-05-24T18:41:20.147Z,36.75
2018-05-24T18:43:47.565Z,37.02
2018-05-24T18:46:15.039Z,37.09
2018-05-24T18:48:42.563Z,37.35
2018-05-24T18:51:10.000Z,37.45
2018-05-24T18:53:37.421Z,37.53
2018-05-24T18:56:04.966Z,37.69
2018-05-24T18:58:32.377Z,37.95
2018-05-24T19:00:59.820Z,37.98
2018-05-24T19:03:27.317Z,38.26
2018-05-24T19:05:54.737Z,38.49
2018-05-24T19:08:22.157Z,38.53
2018-05-24T19:10:50.015Z,38.63
2018-05-24T19:13:17.552Z,38.70
2018-05-24T19:15:44.993Z,38.71
2018-05-24T19:18:12.417Z,38.78
2018-05-24T19:20:43.192Z,38.85
2018-05-24T19:23:10.642Z,38.88
2018-05-24T19:25:38.056Z,39.13
2018-05-24T19:28:05.709Z,38.97
2018-05-24T19:30:33.120Z,39.48
2018-05-24T19:33:00.567Z,39.29
2018-05-24T19:35:28.037Z,39.27
2018-05-24T19:37:55.457Z,39.33
2018-05-24T19:40:22.885Z,39.45
2018-05-24T19:42:50.296Z,39.77
2018-05-24T19:45:17.737Z,39.93
2018-05-24T19:47:45.177Z,40.05
2018-05-24T19:50:12.592Z,40.12
2018-05-24T19:52:40.017Z,40.33
2018-05-24T19:55:07.474Z,40.47
2018-05-24T19:57:34.887Z,40.79
2018-05-24T20:00:02.403Z,40.67
2018-05-24T20:02:29.828Z,41.18
2018-05-24T20:04:57.260Z,41.09
2018-05-24T20:07:24.752Z,41.25
2018-05-24T20:09:52.165Z,41.33
2018-05-24T20:12:19.639Z,41.33
2018-05-24T20:14:47.053Z,41.42
2018-05-24T20:17:14.464Z,41.40
2018-05-24T20:19:41.921Z,41.64
2018-05-24T20:22:09.336Z,41.53
2018-05-24T20:24:36.746Z,41.56
2018-05-24T20:27:04.185Z,41.57
2018-05-24T20:29:31.640Z,41.73
2018-05-24T20:31:59.073Z,41.66
2018-05-24T20:34:26.480Z,41.76
2018-05-24T20:36:53.904Z,41.69
2018-05-24T20:39:21.319Z,41.73
2018-05-24T20:41:48.732Z,41.72
2018-05-24T20:44:16.148Z,41.61
2018-05-24T20:46:48.403Z,41.66
2018-05-24T20:49:15.816Z,41.62
2018-05-24T20:51:43.246Z,41.62
2018-05-24T20:54:10.649Z,41.54
2018-05-24T20:56:38.070Z,41.58
2018-05-24T20:59:05.456Z,41.45
2018-05-24T21:01:32.877Z,41.68
2018-05-24T21:04:00.294Z,41.49
2018-05-24T21:06:27.711Z,41.29
2018-05-24T21:08:55.123Z,41.41
2018-05-24T21:11:22.550Z,41.22
2018-05-24T21:13:49.962Z,41.46
2018-05-24T21:16:17.381Z,41.67
2018-05-24T21:18:44.784Z,41.50
2018-05-24T21:21:12.213Z,41.36
2018-05-24T21:23:39.651Z,41.55
2018-05-24T21:26:07.056Z,41.89
2018-05-24T21:28:34.460Z,41.46
2018-05-24T21:31:01.886Z,41.51
2018-05-24T21:33:29.304Z,41.44
2018-05-24T21:35:56.728Z,41.47
2018-05-24T21:38:24.156Z,41.85
2018-05-24T21:40:51.569Z,41.55
2018-05-24T21:43:18.982Z,41.54
2018-05-24T21:45:46.397Z,41.55
2018-05-24T21:48:13.804Z,41.50
2018-05-24T21:50:41.221Z,41.56
2018-05-24T21:53:08.628Z,41.93
2018-05-24T21:55:36.041Z,41.68
2018-05-24T21:58:03.465Z,41.73
2018-05-24T22:00:30.872Z,41.74
2018-05-24T22:02:58.295Z,41.76
2018-05-24T22:05:25.704Z,41.74
2018-05-24T22:07:53.121Z,42.01
2018-05-24T22:10:20.543Z,42.05
2018-05-24T22:12:47.957Z,42.10
2018-05-24T22:15:15.368Z,42.19
2018-05-24T22:17:42.790Z,42.41
2018-05-24T22:20:10.203Z,42.36
2018-05-24T22:22:37.615Z,42.43
2018-05-24T22:25:05.024Z,42.60
2018-05-24T22:27:32.444Z,42.67
2018-05-24T22:29:59.853Z,42.83
2018-05-24T22:32:27.275Z,43.06
2018-05-24T22:34:54.692Z,43.01
2018-05-24T22:37:22.100Z,43.36
2018-05-24T22:39:49.515Z,43.29
2018-05-24T22:42:16.932Z,43.43
2018-05-24T22:44:44.382Z,43.46
2018-05-24T22:47:11.756Z,43.42
2018-05-24T22:49:39.168Z,43.44
2018-05-24T22:52:06.593Z,43.63
2018-05-24T22:54:33.995Z,43.94
2018-05-24T22:57:01.411Z,43.68
2018-05-24T22:59:28.864Z,43.75
2018-05-24T23:01:56.273Z,43.74
2018-05-24T23:04:23.689Z,44.05
2018-05-24T23:06:51.113Z,44.14
2018-05-24T23:09:18.520Z,44.08
2018-05-24T23:11:45.950Z,44.37
2018-05-24T23:14:13.370Z,44.25
2018-05-24T23:16:40.780Z,44.42
2018-05-24T23:19:08.195Z,44.58
2018-05-24T23:21:35.612Z,44.67
2018-05-24T23:24:03.024Z,44.76
2018-05-24T23:26:30.429Z,45.17
2018-05-24T23:28:57.844Z,45.19
2018-05-24T23:31:25.254Z,45.34
2018-05-24T23:33:52.671Z,45.57
2018-05-24T23:36:20.084Z,45.62
2018-05-24T23:38:47.498Z,45.64
2018-05-24T23:41:14.901Z,45.99
2018-05-24T23:43:42.336Z,46.02
2018-05-24T23:46:09.749Z,45.90
2018-05-24T23:48:37.177Z,46.22
2018-05-24T23:51:04.571Z,46.23
2018-05-24T23:53:31.992Z,46.67
2018-05-24T23:55:59.408Z,46.66
2018-05-24T23:58:26.825Z,46.67
